sensor_id;sensor_type;location;lat;lon;timestamp;P1;durP1;ratioP1;P2;durP2;ratioP2
11827;SDS011;5971;49.646;8.568;2023-03-30T00:02:11;3.80;;;1.98;;
11827;SDS011;5971;49.646;8.568;2023-03-30T00:05:13;3.30;;;1.50;;
11827;SDS011;5971;49.646;8.568;2023-03-30T00:08:16;5.40;;;1.65;;
11827;SDS011;5971;49.646;8.568;2023-03-30T00:11:18;5.00;;;2.40;;
11827;SDS011;5971;49.646;8.568;2023-03-30T00:14:23;5.68;;;1.52;;
11827;SDS011;5971;49.646;8.568;2023-03-30T00:17:29;3.47;;;1.73;;
11827;SDS011;5971;49.646;8.568;2023-03-30T00:20:31;3.30;;;1.60;;
11827;SDS011;5971;49.646;8.568;2023-03-30T00:23:32;4.47;;;1.80;;
11827;SDS011;5971;49.646;8.568;2023-03-30T00:26:33;4.65;;;2.00;;
11827;SDS011;5971;49.646;8.568;2023-03-30T00:29:35;6.07;;;1.60;;
11827;SDS011;5971;49.646;8.568;2023-03-30T00:32:36;4.68;;;1.77;;
11827;SDS011;5971;49.646;8.568;2023-03-30T00:35:38;3.70;;;1.92;;
11827;SDS011;5971;49.646;8.568;2023-03-30T00:38:39;3.75;;;1.55;;
11827;SDS011;5971;49.646;8.568;2023-03-30T00:41:41;4.18;;;1.55;;
11827;SDS011;5971;49.646;8.568;2023-03-30T00:48:06;4.70;;;1.52;;
11827;SDS011;5971;49.646;8.568;2023-03-30T00:51:09;4.38;;;2.03;;
11827;SDS011;5971;49.646;8.568;2023-03-30T00:54:12;4.68;;;1.92;;
11827;SDS011;5971;49.646;8.568;2023-03-30T00:57:15;4.03;;;1.58;;
11827;SDS011;5971;49.646;8.568;2023-03-30T01:00:17;4.07;;;1.52;;
11827;SDS011;5971;49.646;8.568;2023-03-30T01:03:23;6.32;;;2.00;;
11827;SDS011;5971;49.646;8.568;2023-03-30T01:06:27;7.03;;;2.30;;
11827;SDS011;5971;49.646;8.568;2023-03-30T01:09:31;3.65;;;1.73;;
11827;SDS011;5971;49.646;8.568;2023-03-30T01:12:33;3.65;;;2.00;;
11827;SDS011;5971;49.646;8.568;2023-03-30T01:15:35;3.40;;;1.70;;
11827;SDS011;5971;49.646;8.568;2023-03-30T01:28:14;4.43;;;1.73;;
11827;SDS011;5971;49.646;8.568;2023-03-30T01:40:39;5.82;;;2.17;;
11827;SDS011;5971;49.646;8.568;2023-03-30T01:43:48;3.10;;;2.03;;
11827;SDS011;5971;49.646;8.568;2023-03-30T01:47:16;7.70;;;2.20;;
11827;SDS011;5971;49.646;8.568;2023-03-30T01:50:16;4.40;;;2.03;;
11827;SDS011;5971;49.646;8.568;2023-03-30T01:56:28;4.55;;;1.98;;
11827;SDS011;5971;49.646;8.568;2023-03-30T02:02:33;3.85;;;1.63;;
11827;SDS011;5971;49.646;8.568;2023-03-30T02:05:34;4.82;;;2.03;;
11827;SDS011;5971;49.646;8.568;2023-03-30T02:08:36;6.35;;;1.80;;
11827;SDS011;5971;49.646;8.568;2023-03-30T02:11:38;4.47;;;1.98;;
11827;SDS011;5971;49.646;8.568;2023-03-30T02:14:41;4.55;;;2.63;;
11827;SDS011;5971;49.646;8.568;2023-03-30T02:17:43;5.40;;;1.83;;
11827;SDS011;5971;49.646;8.568;2023-03-30T02:20:47;5.30;;;1.63;;
11827;SDS011;5971;49.646;8.568;2023-03-30T02:23:49;3.67;;;1.73;;
11827;SDS011;5971;49.646;8.568;2023-03-30T02:26:53;6.38;;;1.73;;
11827;SDS011;5971;49.646;8.568;2023-03-30T02:29:55;4.55;;;1.63;;
11827;SDS011;5971;49.646;8.568;2023-03-30T02:32:56;4.38;;;1.90;;
11827;SDS011;5971;49.646;8.568;2023-03-30T02:36:04;4.97;;;2.05;;
11827;SDS011;5971;49.646;8.568;2023-03-30T02:46:01;6.53;;;1.73;;
11827;SDS011;5971;49.646;8.568;2023-03-30T02:49:12;7.18;;;1.80;;
11827;SDS011;5971;49.646;8.568;2023-03-30T02:55:34;5.20;;;1.60;;
11827;SDS011;5971;49.646;8.568;2023-03-30T02:58:52;5.40;;;1.77;;
11827;SDS011;5971;49.646;8.568;2023-03-30T03:01:55;4.28;;;1.73;;
11827;SDS011;5971;49.646;8.568;2023-03-30T03:04:59;6.72;;;2.28;;
11827;SDS011;5971;49.646;8.568;2023-03-30T03:08:04;4.82;;;2.00;;
11827;SDS011;5971;49.646;8.568;2023-03-30T03:11:06;7.05;;;1.88;;
11827;SDS011;5971;49.646;8.568;2023-03-30T03:14:08;6.15;;;1.83;;
11827;SDS011;5971;49.646;8.568;2023-03-30T03:17:09;3.95;;;1.70;;
11827;SDS011;5971;49.646;8.568;2023-03-30T03:20:12;3.65;;;1.70;;
11827;SDS011;5971;49.646;8.568;2023-03-30T03:23:13;5.50;;;2.05;;
11827;SDS011;5971;49.646;8.568;2023-03-30T03:26:15;5.68;;;2.55;;
11827;SDS011;5971;49.646;8.568;2023-03-30T03:29:16;6.25;;;1.92;;
11827;SDS011;5971;49.646;8.568;2023-03-30T03:32:18;4.88;;;2.03;;
11827;SDS011;5971;49.646;8.568;2023-03-30T03:35:19;4.88;;;1.98;;
11827;SDS011;5971;49.646;8.568;2023-03-30T03:38:20;3.97;;;1.73;;
11827;SDS011;5971;49.646;8.568;2023-03-30T03:41:22;5.57;;;2.47;;
11827;SDS011;5971;49.646;8.568;2023-03-30T03:44:23;3.00;;;1.60;;
11827;SDS011;5971;49.646;8.568;2023-03-30T03:47:24;4.28;;;1.95;;
11827;SDS011;5971;49.646;8.568;2023-03-30T03:50:26;6.50;;;2.47;;
11827;SDS011;5971;49.646;8.568;2023-03-30T03:53:27;6.57;;;3.17;;
11827;SDS011;5971;49.646;8.568;2023-03-30T03:56:28;7.45;;;2.60;;
11827;SDS011;5971;49.646;8.568;2023-03-30T03:59:30;5.72;;;2.42;;
11827;SDS011;5971;49.646;8.568;2023-03-30T04:02:31;3.53;;;2.10;;
11827;SDS011;5971;49.646;8.568;2023-03-30T04:05:33;5.60;;;1.67;;
11827;SDS011;5971;49.646;8.568;2023-03-30T04:08:34;7.07;;;2.05;;
11827;SDS011;5971;49.646;8.568;2023-03-30T04:11:36;6.85;;;2.15;;
11827;SDS011;5971;49.646;8.568;2023-03-30T04:14:37;6.38;;;2.30;;
11827;SDS011;5971;49.646;8.568;2023-03-30T04:17:39;3.00;;;1.63;;
11827;SDS011;5971;49.646;8.568;2023-03-30T04:20:40;5.97;;;1.63;;
11827;SDS011;5971;49.646;8.568;2023-03-30T04:23:41;9.07;;;2.08;;
11827;SDS011;5971;49.646;8.568;2023-03-30T04:26:45;4.22;;;1.58;;
11827;SDS011;5971;49.646;8.568;2023-03-30T04:29:49;5.05;;;1.65;;
11827;SDS011;5971;49.646;8.568;2023-03-30T04:32:50;4.47;;;2.80;;
11827;SDS011;5971;49.646;8.568;2023-03-30T04:36:03;3.80;;;1.67;;
11827;SDS011;5971;49.646;8.568;2023-03-30T04:39:04;2.75;;;1.33;;
11827;SDS011;5971;49.646;8.568;2023-03-30T04:42:07;3.97;;;1.42;;
11827;SDS011;5971;49.646;8.568;2023-03-30T04:45:14;4.05;;;1.90;;
11827;SDS011;5971;49.646;8.568;2023-03-30T04:48:17;5.07;;;1.63;;
11827;SDS011;5971;49.646;8.568;2023-03-30T04:51:18;6.35;;;1.65;;
11827;SDS011;5971;49.646;8.568;2023-03-30T04:54:20;5.00;;;1.60;;
11827;SDS011;5971;49.646;8.568;2023-03-30T04:57:21;7.30;;;2.38;;
11827;SDS011;5971;49.646;8.568;2023-03-30T05:00:22;5.30;;;2.00;;
11827;SDS011;5971;49.646;8.568;2023-03-30T05:03:24;3.72;;;1.63;;
11827;SDS011;5971;49.646;8.568;2023-03-30T05:06:25;4.93;;;1.65;;
11827;SDS011;5971;49.646;8.568;2023-03-30T05:09:27;5.05;;;1.55;;
11827;SDS011;5971;49.646;8.568;2023-03-30T05:12:28;3.80;;;1.48;;
11827;SDS011;5971;49.646;8.568;2023-03-30T05:15:30;5.10;;;1.80;;
11827;SDS011;5971;49.646;8.568;2023-03-30T05:18:31;6.95;;;1.60;;
11827;SDS011;5971;49.646;8.568;2023-03-30T05:21:32;3.50;;;1.80;;
11827;SDS011;5971;49.646;8.568;2023-03-30T05:24:34;6.82;;;2.40;;
11827;SDS011;5971;49.646;8.568;2023-03-30T05:27:35;3.70;;;1.50;;
11827;SDS011;5971;49.646;8.568;2023-03-30T05:30:36;3.67;;;1.80;;
11827;SDS011;5971;49.646;8.568;2023-03-30T05:33:38;4.88;;;1.80;;
11827;SDS011;5971;49.646;8.568;2023-03-30T05:36:41;5.97;;;1.75;;
11827;SDS011;5971;49.646;8.568;2023-03-30T05:39:42;6.07;;;2.30;;
11827;SDS011;5971;49.646;8.568;2023-03-30T05:42:44;10.05;;;2.03;;
11827;SDS011;5971;49.646;8.568;2023-03-30T05:45:45;4.53;;;1.65;;
11827;SDS011;5971;49.646;8.568;2023-03-30T05:48:46;8.45;;;1.98;;
11827;SDS011;5971;49.646;8.568;2023-03-30T05:51:48;5.05;;;1.90;;
11827;SDS011;5971;49.646;8.568;2023-03-30T05:54:49;6.78;;;1.80;;
11827;SDS011;5971;49.646;8.568;2023-03-30T05:57:50;6.30;;;1.92;;
11827;SDS011;5971;49.646;8.568;2023-03-30T06:00:51;6.75;;;2.15;;
11827;SDS011;5971;49.646;8.568;2023-03-30T06:03:54;7.68;;;2.15;;
11827;SDS011;5971;49.646;8.568;2023-03-30T06:06:55;6.95;;;2.25;;
11827;SDS011;5971;49.646;8.568;2023-03-30T06:09:57;6.15;;;2.25;;
11827;SDS011;5971;49.646;8.568;2023-03-30T06:12:59;3.58;;;1.88;;
11827;SDS011;5971;49.646;8.568;2023-03-30T06:16:01;4.88;;;1.80;;
11827;SDS011;5971;49.646;8.568;2023-03-30T06:19:04;4.78;;;2.00;;
11827;SDS011;5971;49.646;8.568;2023-03-30T06:22:05;6.05;;;2.22;;
11827;SDS011;5971;49.646;8.568;2023-03-30T06:25:07;8.48;;;2.33;;
11827;SDS011;5971;49.646;8.568;2023-03-30T06:28:09;5.15;;;2.13;;
11827;SDS011;5971;49.646;8.568;2023-03-30T06:31:10;6.78;;;2.70;;
11827;SDS011;5971;49.646;8.568;2023-03-30T06:34:12;6.45;;;1.75;;
11827;SDS011;5971;49.646;8.568;2023-03-30T06:37:13;5.50;;;1.98;;
11827;SDS011;5971;49.646;8.568;2023-03-30T06:40:15;6.55;;;1.73;;
11827;SDS011;5971;49.646;8.568;2023-03-30T06:43:21;10.15;;;1.98;;
11827;SDS011;5971;49.646;8.568;2023-03-30T06:46:23;4.15;;;1.52;;
11827;SDS011;5971;49.646;8.568;2023-03-30T06:49:25;6.90;;;2.05;;
11827;SDS011;5971;49.646;8.568;2023-03-30T06:52:26;7.60;;;2.35;;
11827;SDS011;5971;49.646;8.568;2023-03-30T06:55:27;5.85;;;2.72;;
11827;SDS011;5971;49.646;8.568;2023-03-30T06:58:29;5.55;;;2.03;;
11827;SDS011;5971;49.646;8.568;2023-03-30T07:01:30;5.07;;;1.55;;
11827;SDS011;5971;49.646;8.568;2023-03-30T07:04:31;6.78;;;2.38;;
11827;SDS011;5971;49.646;8.568;2023-03-30T07:07:33;6.78;;;3.08;;
11827;SDS011;5971;49.646;8.568;2023-03-30T07:10:35;7.57;;;2.83;;
11827;SDS011;5971;49.646;8.568;2023-03-30T07:13:36;6.72;;;2.67;;
11827;SDS011;5971;49.646;8.568;2023-03-30T07:16:37;6.03;;;2.38;;
11827;SDS011;5971;49.646;8.568;2023-03-30T07:19:39;5.38;;;2.78;;
11827;SDS011;5971;49.646;8.568;2023-03-30T07:22:40;4.55;;;2.28;;
11827;SDS011;5971;49.646;8.568;2023-03-30T07:25:43;11.57;;;3.00;;
11827;SDS011;5971;49.646;8.568;2023-03-30T07:28:44;5.38;;;2.35;;
11827;SDS011;5971;49.646;8.568;2023-03-30T07:31:46;7.63;;;2.63;;
11827;SDS011;5971;49.646;8.568;2023-03-30T07:34:48;5.32;;;2.08;;
11827;SDS011;5971;49.646;8.568;2023-03-30T07:37:49;7.60;;;2.60;;
11827;SDS011;5971;49.646;8.568;2023-03-30T07:40:51;5.50;;;2.20;;
11827;SDS011;5971;49.646;8.568;2023-03-30T07:43:52;8.07;;;2.28;;
11827;SDS011;5971;49.646;8.568;2023-03-30T07:46:54;7.50;;;2.97;;
11827;SDS011;5971;49.646;8.568;2023-03-30T07:49:55;7.28;;;2.47;;
11827;SDS011;5971;49.646;8.568;2023-03-30T07:52:57;6.38;;;2.45;;
11827;SDS011;5971;49.646;8.568;2023-03-30T07:55:58;9.60;;;4.45;;
11827;SDS011;5971;49.646;8.568;2023-03-30T07:58:59;6.30;;;2.30;;
11827;SDS011;5971;49.646;8.568;2023-03-30T08:02:02;5.95;;;2.35;;
11827;SDS011;5971;49.646;8.568;2023-03-30T08:05:04;6.32;;;2.15;;
11827;SDS011;5971;49.646;8.568;2023-03-30T08:08:06;5.63;;;2.40;;
11827;SDS011;5971;49.646;8.568;2023-03-30T08:11:08;4.63;;;1.90;;
11827;SDS011;5971;49.646;8.568;2023-03-30T08:14:11;7.03;;;1.95;;
11827;SDS011;5971;49.646;8.568;2023-03-30T08:17:12;8.93;;;2.10;;
11827;SDS011;5971;49.646;8.568;2023-03-30T08:20:13;5.22;;;1.70;;
11827;SDS011;5971;49.646;8.568;2023-03-30T08:23:16;5.72;;;1.70;;
11827;SDS011;5971;49.646;8.568;2023-03-30T08:26:17;2.83;;;1.52;;
11827;SDS011;5971;49.646;8.568;2023-03-30T08:29:18;5.10;;;1.63;;
11827;SDS011;5971;49.646;8.568;2023-03-30T08:32:20;3.03;;;1.60;;
11827;SDS011;5971;49.646;8.568;2023-03-30T08:35:21;6.10;;;1.90;;
11827;SDS011;5971;49.646;8.568;2023-03-30T08:38:23;8.05;;;1.98;;
11827;SDS011;5971;49.646;8.568;2023-03-30T08:41:37;5.63;;;2.03;;
11827;SDS011;5971;49.646;8.568;2023-03-30T08:44:43;3.13;;;1.63;;
11827;SDS011;5971;49.646;8.568;2023-03-30T08:47:48;7.78;;;2.33;;
11827;SDS011;5971;49.646;8.568;2023-03-30T08:50:58;3.38;;;1.95;;
11827;SDS011;5971;49.646;8.568;2023-03-30T08:54:04;4.00;;;1.92;;
11827;SDS011;5971;49.646;8.568;2023-03-30T09:00:44;5.35;;;2.10;;
11827;SDS011;5971;49.646;8.568;2023-03-30T09:03:53;3.75;;;2.38;;
11827;SDS011;5971;49.646;8.568;2023-03-30T09:07:01;6.60;;;2.10;;
11827;SDS011;5971;49.646;8.568;2023-03-30T09:10:09;4.25;;;1.83;;
11827;SDS011;5971;49.646;8.568;2023-03-30T09:13:12;4.03;;;2.03;;
11827;SDS011;5971;49.646;8.568;2023-03-30T09:16:28;5.28;;;2.15;;
11827;SDS011;5971;49.646;8.568;2023-03-30T09:19:55;5.18;;;2.35;;
11827;SDS011;5971;49.646;8.568;2023-03-30T09:22:57;4.80;;;2.05;;
11827;SDS011;5971;49.646;8.568;2023-03-30T09:26:07;4.78;;;1.98;;
11827;SDS011;5971;49.646;8.568;2023-03-30T09:29:27;6.18;;;2.58;;
11827;SDS011;5971;49.646;8.568;2023-03-30T09:32:41;4.72;;;2.40;;
11827;SDS011;5971;49.646;8.568;2023-03-30T09:35:49;3.90;;;2.22;;
11827;SDS011;5971;49.646;8.568;2023-03-30T09:38:54;5.20;;;1.95;;
11827;SDS011;5971;49.646;8.568;2023-03-30T09:45:16;4.97;;;2.63;;
11827;SDS011;5971;49.646;8.568;2023-03-30T09:48:20;8.10;;;2.92;;
11827;SDS011;5971;49.646;8.568;2023-03-30T09:51:23;5.00;;;2.83;;
11827;SDS011;5971;49.646;8.568;2023-03-30T09:54:25;4.80;;;2.40;;
11827;SDS011;5971;49.646;8.568;2023-03-30T09:57:34;5.38;;;2.13;;
11827;SDS011;5971;49.646;8.568;2023-03-30T10:00:35;5.72;;;2.10;;
11827;SDS011;5971;49.646;8.568;2023-03-30T10:03:40;3.72;;;1.75;;
11827;SDS011;5971;49.646;8.568;2023-03-30T10:06:46;5.60;;;2.00;;
11827;SDS011;5971;49.646;8.568;2023-03-30T10:09:48;7.70;;;2.85;;
11827;SDS011;5971;49.646;8.568;2023-03-30T10:12:53;4.55;;;1.70;;
11827;SDS011;5971;49.646;8.568;2023-03-30T10:15:54;5.18;;;2.03;;
11827;SDS011;5971;49.646;8.568;2023-03-30T10:19:00;2.88;;;1.40;;
11827;SDS011;5971;49.646;8.568;2023-03-30T10:22:01;3.67;;;2.33;;
11827;SDS011;5971;49.646;8.568;2023-03-30T10:25:08;3.13;;;1.90;;
11827;SDS011;5971;49.646;8.568;2023-03-30T10:31:16;4.72;;;2.05;;
11827;SDS011;5971;49.646;8.568;2023-03-30T10:34:33;3.05;;;1.50;;
11827;SDS011;5971;49.646;8.568;2023-03-30T10:40:38;2.63;;;1.30;;
11827;SDS011;5971;49.646;8.568;2023-03-30T10:43:40;4.55;;;1.52;;
11827;SDS011;5971;49.646;8.568;2023-03-30T10:46:42;2.90;;;1.25;;
11827;SDS011;5971;49.646;8.568;2023-03-30T10:59:05;3.30;;;1.60;;
11827;SDS011;5971;49.646;8.568;2023-03-30T11:05:18;2.70;;;1.48;;
11827;SDS011;5971;49.646;8.568;2023-03-30T11:11:29;5.53;;;2.17;;
11827;SDS011;5971;49.646;8.568;2023-03-30T11:24:20;3.13;;;1.48;;
11827;SDS011;5971;49.646;8.568;2023-03-30T11:27:21;2.15;;;1.23;;
11827;SDS011;5971;49.646;8.568;2023-03-30T11:30:28;2.72;;;1.65;;
11827;SDS011;5971;49.646;8.568;2023-03-30T11:33:35;3.28;;;1.33;;
11827;SDS011;5971;49.646;8.568;2023-03-30T11:36:38;4.32;;;1.50;;
11827;SDS011;5971;49.646;8.568;2023-03-30T11:43:03;3.05;;;1.30;;
11827;SDS011;5971;49.646;8.568;2023-03-30T11:46:08;3.97;;;1.75;;
11827;SDS011;5971;49.646;8.568;2023-03-30T11:55:53;3.75;;;1.45;;
11827;SDS011;5971;49.646;8.568;2023-03-30T11:59:03;2.72;;;1.30;;
11827;SDS011;5971;49.646;8.568;2023-03-30T12:05:21;3.25;;;1.75;;
11827;SDS011;5971;49.646;8.568;2023-03-30T12:17:55;4.15;;;1.33;;
11827;SDS011;5971;49.646;8.568;2023-03-30T12:21:04;2.80;;;1.42;;
11827;SDS011;5971;49.646;8.568;2023-03-30T12:27:13;2.20;;;1.02;;
11827;SDS011;5971;49.646;8.568;2023-03-30T12:30:22;2.78;;;1.30;;
11827;SDS011;5971;49.646;8.568;2023-03-30T12:36:34;3.80;;;2.10;;
11827;SDS011;5971;49.646;8.568;2023-03-30T12:39:44;3.38;;;1.80;;
11827;SDS011;5971;49.646;8.568;2023-03-30T12:43:13;5.22;;;1.83;;
11827;SDS011;5971;49.646;8.568;2023-03-30T12:46:14;3.15;;;1.17;;
11827;SDS011;5971;49.646;8.568;2023-03-30T12:52:32;4.03;;;1.42;;
11827;SDS011;5971;49.646;8.568;2023-03-30T12:58:53;2.88;;;1.35;;
11827;SDS011;5971;49.646;8.568;2023-03-30T13:05:16;2.75;;;1.00;;
11827;SDS011;5971;49.646;8.568;2023-03-30T13:08:25;2.45;;;1.17;;
11827;SDS011;5971;49.646;8.568;2023-03-30T13:11:41;2.53;;;1.05;;
11827;SDS011;5971;49.646;8.568;2023-03-30T13:14:45;1.60;;;0.85;;
11827;SDS011;5971;49.646;8.568;2023-03-30T13:21:31;1.95;;;0.80;;
11827;SDS011;5971;49.646;8.568;2023-03-30T13:24:31;2.20;;;0.70;;
11827;SDS011;5971;49.646;8.568;2023-03-30T13:30:37;2.47;;;0.80;;
11827;SDS011;5971;49.646;8.568;2023-03-30T13:33:39;1.67;;;0.80;;
11827;SDS011;5971;49.646;8.568;2023-03-30T13:36:46;3.35;;;0.82;;
11827;SDS011;5971;49.646;8.568;2023-03-30T13:49:52;3.13;;;0.90;;
11827;SDS011;5971;49.646;8.568;2023-03-30T13:52:56;2.15;;;0.73;;
11827;SDS011;5971;49.646;8.568;2023-03-30T13:55:59;2.88;;;1.08;;
11827;SDS011;5971;49.646;8.568;2023-03-30T13:59:02;2.17;;;0.75;;
11827;SDS011;5971;49.646;8.568;2023-03-30T14:02:04;2.60;;;0.90;;
11827;SDS011;5971;49.646;8.568;2023-03-30T14:05:19;2.50;;;0.95;;
11827;SDS011;5971;49.646;8.568;2023-03-30T14:08:21;3.33;;;0.70;;
11827;SDS011;5971;49.646;8.568;2023-03-30T14:11:26;2.28;;;0.70;;
11827;SDS011;5971;49.646;8.568;2023-03-30T14:14:33;2.90;;;0.75;;
11827;SDS011;5971;49.646;8.568;2023-03-30T14:17:35;1.02;;;0.65;;
11827;SDS011;5971;49.646;8.568;2023-03-30T14:23:40;1.83;;;0.90;;
11827;SDS011;5971;49.646;8.568;2023-03-30T14:26:45;2.88;;;0.90;;
11827;SDS011;5971;49.646;8.568;2023-03-30T14:29:50;1.88;;;1.02;;
11827;SDS011;5971;49.646;8.568;2023-03-30T14:36:05;1.30;;;0.70;;
11827;SDS011;5971;49.646;8.568;2023-03-30T14:45:15;1.75;;;0.77;;
11827;SDS011;5971;49.646;8.568;2023-03-30T14:48:25;2.92;;;0.73;;
11827;SDS011;5971;49.646;8.568;2023-03-30T14:51:40;1.33;;;0.60;;
11827;SDS011;5971;49.646;8.568;2023-03-30T14:54:42;1.92;;;1.25;;
11827;SDS011;5971;49.646;8.568;2023-03-30T14:58:02;0.80;;;0.50;;
11827;SDS011;5971;49.646;8.568;2023-03-30T15:01:04;2.17;;;0.70;;
11827;SDS011;5971;49.646;8.568;2023-03-30T15:04:12;4.57;;;0.88;;
11827;SDS011;5971;49.646;8.568;2023-03-30T15:07:14;1.67;;;0.55;;
11827;SDS011;5971;49.646;8.568;2023-03-30T15:10:24;3.28;;;0.73;;
11827;SDS011;5971;49.646;8.568;2023-03-30T15:16:31;1.35;;;0.82;;
11827;SDS011;5971;49.646;8.568;2023-03-30T15:19:33;1.48;;;0.85;;
11827;SDS011;5971;49.646;8.568;2023-03-30T15:22:42;1.90;;;1.23;;
11827;SDS011;5971;49.646;8.568;2023-03-30T15:25:44;2.22;;;1.23;;
11827;SDS011;5971;49.646;8.568;2023-03-30T15:28:48;1.83;;;0.63;;
11827;SDS011;5971;49.646;8.568;2023-03-30T15:32:05;4.45;;;1.38;;
11827;SDS011;5971;49.646;8.568;2023-03-30T15:41:11;1.13;;;0.70;;
11827;SDS011;5971;49.646;8.568;2023-03-30T15:44:18;3.55;;;0.73;;
11827;SDS011;5971;49.646;8.568;2023-03-30T15:47:19;4.57;;;0.90;;
11827;SDS011;5971;49.646;8.568;2023-03-30T15:50:21;1.48;;;0.70;;
11827;SDS011;5971;49.646;8.568;2023-03-30T15:53:29;1.52;;;0.80;;
11827;SDS011;5971;49.646;8.568;2023-03-30T15:56:33;2.88;;;0.75;;
11827;SDS011;5971;49.646;8.568;2023-03-30T15:59:37;1.70;;;0.80;;
11827;SDS011;5971;49.646;8.568;2023-03-30T16:02:42;2.88;;;0.85;;
11827;SDS011;5971;49.646;8.568;2023-03-30T16:05:46;4.32;;;1.00;;
11827;SDS011;5971;49.646;8.568;2023-03-30T16:08:48;2.10;;;0.65;;
11827;SDS011;5971;49.646;8.568;2023-03-30T16:11:49;2.00;;;0.75;;
11827;SDS011;5971;49.646;8.568;2023-03-30T16:14:51;1.42;;;0.82;;
11827;SDS011;5971;49.646;8.568;2023-03-30T16:17:53;2.17;;;0.80;;
11827;SDS011;5971;49.646;8.568;2023-03-30T16:20:54;2.70;;;0.80;;
11827;SDS011;5971;49.646;8.568;2023-03-30T16:23:56;1.45;;;0.70;;
11827;SDS011;5971;49.646;8.568;2023-03-30T16:26:57;1.33;;;1.10;;
11827;SDS011;5971;49.646;8.568;2023-03-30T16:29:58;3.42;;;1.08;;
11827;SDS011;5971;49.646;8.568;2023-03-30T16:33:00;2.72;;;1.60;;
11827;SDS011;5971;49.646;8.568;2023-03-30T16:36:01;1.98;;;0.73;;
11827;SDS011;5971;49.646;8.568;2023-03-30T16:39:03;2.70;;;1.30;;
11827;SDS011;5971;49.646;8.568;2023-03-30T16:45:08;2.05;;;1.15;;
11827;SDS011;5971;49.646;8.568;2023-03-30T16:48:11;1.38;;;0.80;;
11827;SDS011;5971;49.646;8.568;2023-03-30T16:51:13;1.08;;;0.82;;
11827;SDS011;5971;49.646;8.568;2023-03-30T16:54:15;1.50;;;0.60;;
11827;SDS011;5971;49.646;8.568;2023-03-30T16:57:31;0.65;;;0.63;;
11827;SDS011;5971;49.646;8.568;2023-03-30T17:00:39;1.02;;;0.80;;
11827;SDS011;5971;49.646;8.568;2023-03-30T17:03:41;0.52;;;0.50;;
11827;SDS011;5971;49.646;8.568;2023-03-30T17:06:42;1.38;;;0.63;;
11827;SDS011;5971;49.646;8.568;2023-03-30T17:09:43;1.13;;;1.08;;
11827;SDS011;5971;49.646;8.568;2023-03-30T17:12:45;1.38;;;0.85;;
11827;SDS011;5971;49.646;8.568;2023-03-30T17:15:46;1.70;;;0.73;;
11827;SDS011;5971;49.646;8.568;2023-03-30T17:18:48;2.17;;;0.63;;
11827;SDS011;5971;49.646;8.568;2023-03-30T17:21:49;2.65;;;0.73;;
11827;SDS011;5971;49.646;8.568;2023-03-30T17:24:51;2.85;;;0.70;;
11827;SDS011;5971;49.646;8.568;2023-03-30T17:27:52;2.25;;;1.08;;
11827;SDS011;5971;49.646;8.568;2023-03-30T17:30:55;4.10;;;1.17;;
11827;SDS011;5971;49.646;8.568;2023-03-30T17:33:56;3.92;;;1.63;;
11827;SDS011;5971;49.646;8.568;2023-03-30T17:36:58;5.55;;;1.83;;
11827;SDS011;5971;49.646;8.568;2023-03-30T17:39:59;4.85;;;2.25;;
11827;SDS011;5971;49.646;8.568;2023-03-30T17:43:00;2.55;;;1.08;;
11827;SDS011;5971;49.646;8.568;2023-03-30T17:46:03;4.28;;;1.50;;
11827;SDS011;5971;49.646;8.568;2023-03-30T17:49:08;2.85;;;1.17;;
11827;SDS011;5971;49.646;8.568;2023-03-30T17:52:14;0.75;;;0.60;;
11827;SDS011;5971;49.646;8.568;2023-03-30T17:55:17;3.00;;;1.00;;
11827;SDS011;5971;49.646;8.568;2023-03-30T17:58:23;3.70;;;1.52;;
11827;SDS011;5971;49.646;8.568;2023-03-30T18:01:24;4.28;;;1.20;;
11827;SDS011;5971;49.646;8.568;2023-03-30T18:04:26;4.85;;;2.40;;
11827;SDS011;5971;49.646;8.568;2023-03-30T18:07:27;3.92;;;2.22;;
11827;SDS011;5971;49.646;8.568;2023-03-30T18:13:33;2.88;;;1.42;;
11827;SDS011;5971;49.646;8.568;2023-03-30T18:16:38;4.28;;;0.93;;
11827;SDS011;5971;49.646;8.568;2023-03-30T18:19:41;3.03;;;1.05;;
11827;SDS011;5971;49.646;8.568;2023-03-30T18:22:42;2.53;;;1.10;;
11827;SDS011;5971;49.646;8.568;2023-03-30T18:25:44;4.18;;;1.15;;
11827;SDS011;5971;49.646;8.568;2023-03-30T18:28:45;2.78;;;1.00;;
11827;SDS011;5971;49.646;8.568;2023-03-30T18:31:47;1.98;;;0.73;;
11827;SDS011;5971;49.646;8.568;2023-03-30T18:34:48;1.45;;;1.35;;
11827;SDS011;5971;49.646;8.568;2023-03-30T18:37:49;0.90;;;0.68;;
11827;SDS011;5971;49.646;8.568;2023-03-30T18:40:51;1.45;;;0.90;;
11827;SDS011;5971;49.646;8.568;2023-03-30T18:43:58;3.60;;;0.90;;
11827;SDS011;5971;49.646;8.568;2023-03-30T18:47:00;2.88;;;1.15;;
11827;SDS011;5971;49.646;8.568;2023-03-30T18:50:01;1.70;;;1.05;;
11827;SDS011;5971;49.646;8.568;2023-03-30T18:53:03;2.45;;;1.02;;
11827;SDS011;5971;49.646;8.568;2023-03-30T18:56:05;5.28;;;0.98;;
11827;SDS011;5971;49.646;8.568;2023-03-30T18:59:08;1.52;;;0.73;;
11827;SDS011;5971;49.646;8.568;2023-03-30T19:02:09;1.10;;;0.70;;
11827;SDS011;5971;49.646;8.568;2023-03-30T19:05:11;1.95;;;0.60;;
11827;SDS011;5971;49.646;8.568;2023-03-30T19:08:13;3.15;;;0.65;;
11827;SDS011;5971;49.646;8.568;2023-03-30T19:11:17;2.08;;;1.25;;
11827;SDS011;5971;49.646;8.568;2023-03-30T19:14:19;1.10;;;0.77;;
11827;SDS011;5971;49.646;8.568;2023-03-30T19:17:20;1.92;;;0.90;;
11827;SDS011;5971;49.646;8.568;2023-03-30T19:20:22;1.48;;;0.73;;
11827;SDS011;5971;49.646;8.568;2023-03-30T19:23:24;1.55;;;0.70;;
11827;SDS011;5971;49.646;8.568;2023-03-30T19:26:25;2.80;;;0.73;;
11827;SDS011;5971;49.646;8.568;2023-03-30T19:29:27;2.13;;;0.82;;
11827;SDS011;5971;49.646;8.568;2023-03-30T19:32:28;3.58;;;1.02;;
11827;SDS011;5971;49.646;8.568;2023-03-30T19:35:30;1.30;;;1.00;;
11827;SDS011;5971;49.646;8.568;2023-03-30T19:38:32;3.80;;;1.33;;
11827;SDS011;5971;49.646;8.568;2023-03-30T19:41:33;3.42;;;1.23;;
11827;SDS011;5971;49.646;8.568;2023-03-30T19:44:34;2.13;;;1.00;;
11827;SDS011;5971;49.646;8.568;2023-03-30T19:47:36;2.85;;;1.42;;
11827;SDS011;5971;49.646;8.568;2023-03-30T19:50:37;1.27;;;1.17;;
11827;SDS011;5971;49.646;8.568;2023-03-30T19:53:40;2.08;;;0.82;;
11827;SDS011;5971;49.646;8.568;2023-03-30T19:56:42;0.90;;;0.63;;
11827;SDS011;5971;49.646;8.568;2023-03-30T19:59:44;2.45;;;0.93;;
11827;SDS011;5971;49.646;8.568;2023-03-30T20:02:46;1.85;;;1.00;;
11827;SDS011;5971;49.646;8.568;2023-03-30T20:05:48;1.42;;;0.85;;
11827;SDS011;5971;49.646;8.568;2023-03-30T20:08:51;2.70;;;1.10;;
11827;SDS011;5971;49.646;8.568;2023-03-30T20:11:54;2.63;;;1.05;;
11827;SDS011;5971;49.646;8.568;2023-03-30T20:14:56;0.98;;;0.70;;
11827;SDS011;5971;49.646;8.568;2023-03-30T20:18:00;1.98;;;1.08;;
11827;SDS011;5971;49.646;8.568;2023-03-30T20:21:02;2.22;;;0.75;;
11827;SDS011;5971;49.646;8.568;2023-03-30T20:24:04;4.93;;;1.38;;
11827;SDS011;5971;49.646;8.568;2023-03-30T20:27:05;1.70;;;0.82;;
11827;SDS011;5971;49.646;8.568;2023-03-30T20:30:07;1.75;;;0.95;;
11827;SDS011;5971;49.646;8.568;2023-03-30T20:33:09;1.60;;;1.13;;
11827;SDS011;5971;49.646;8.568;2023-03-30T20:36:11;2.80;;;1.08;;
11827;SDS011;5971;49.646;8.568;2023-03-30T20:39:12;1.85;;;0.90;;
11827;SDS011;5971;49.646;8.568;2023-03-30T20:42:14;2.15;;;1.10;;
11827;SDS011;5971;49.646;8.568;2023-03-30T20:45:18;1.92;;;1.02;;
11827;SDS011;5971;49.646;8.568;2023-03-30T20:48:27;1.77;;;0.95;;
11827;SDS011;5971;49.646;8.568;2023-03-30T20:51:33;1.70;;;0.82;;
11827;SDS011;5971;49.646;8.568;2023-03-30T20:54:34;4.03;;;1.45;;
11827;SDS011;5971;49.646;8.568;2023-03-30T20:57:36;2.35;;;0.77;;
11827;SDS011;5971;49.646;8.568;2023-03-30T21:00:37;2.28;;;0.90;;
11827;SDS011;5971;49.646;8.568;2023-03-30T21:03:39;3.75;;;0.85;;
11827;SDS011;5971;49.646;8.568;2023-03-30T21:06:44;4.25;;;1.10;;
11827;SDS011;5971;49.646;8.568;2023-03-30T21:09:46;2.17;;;1.08;;
11827;SDS011;5971;49.646;8.568;2023-03-30T21:12:47;1.27;;;0.93;;
11827;SDS011;5971;49.646;8.568;2023-03-30T21:15:58;2.47;;;1.20;;
11827;SDS011;5971;49.646;8.568;2023-03-30T21:19:00;2.85;;;1.15;;
11827;SDS011;5971;49.646;8.568;2023-03-30T21:22:01;1.25;;;0.80;;